F/V Colombine — FVGA — position and weather

sailwx.info

Track history (hours):
 
Tides and Currents Weather Stations Pressure Air Temp Water Temp Dewpoint Dewpoint Depression Visibility Wind Speed Wind Dir Waves Ship Positions

F/V Colombine

Last reported at 2017-Nov-20 00:10 UTC. Time now 2017-Nov-22 05:40 UTC.
Position N 44°57' W 001°24'.

Length 22 m.

Type: Fishing. MMSI: 227866000.

Date/timePositionNaut miles runAvg speedWind from/ knotsBaromVisibWave heightAir tempDewpointWater temp
2017-Nov-20 00:10N 44°57' W 001°24'1 2.9
2017-Nov-19 23:59N 44°56' W 001°24'8 3.3
2017-Nov-19 21:39N 44°49' W 001°25'1 3.9
2017-Nov-19 21:29N 44°48' W 001°25'1 2.4
2017-Nov-19 21:00N 44°47' W 001°25'2 3.3
2017-Nov-19 20:30N 44°45' W 001°25'2 3.1
2017-Nov-19 20:00N 44°44' W 001°25'2 3.2
2017-Nov-19 19:30N 44°42' W 001°25'2 3.2
2017-Nov-19 19:00N 44°41' W 001°25'2 3.3
2017-Nov-19 18:30N 44°40' W 001°23'2 3.0
2017-Nov-19 18:00N 44°38' W 001°23'2 3.1
2017-Nov-19 17:30N 44°36' W 001°23'2 3.1
2017-Nov-19 17:00N 44°35' W 001°23'0 0.8
2017-Nov-19 16:30N 44°35' W 001°24'1 3.0
2017-Nov-19 16:00N 44°36' W 001°24'2 3.4
2017-Nov-19 15:30N 44°38' W 001°24'2 3.3
2017-Nov-19 15:01N 44°39' W 001°23'1 2.8
2017-Nov-19 14:30N 44°38' W 001°23'2 3.2
2017-Nov-19 14:00N 44°36' W 001°22'2 3.2
2017-Nov-19 13:30N 44°35' W 001°22'2 3.2
2017-Nov-19 13:01N 44°33' W 001°22'2 3.3
2017-Nov-19 12:31N 44°32' W 001°23'2 3.5
2017-Nov-19 12:00N 44°31' W 001°26'1 2.1
2017-Nov-19 11:30N 44°32' W 001°26'1 3.0
2017-Nov-19 11:00N 44°34' W 001°26'2 3.2
2017-Nov-19 10:31N 44°35' W 001°26'2 3.2
2017-Nov-19 10:01N 44°37' W 001°26'2 3.1
2017-Nov-19 09:30N 44°38' W 001°26'2 3.1
2017-Nov-19 09:01N 44°40' W 001°26'2 3.1
2017-Nov-19 08:31N 44°41' W 001°26'2 3.1
2017-Nov-19 08:01N 44°43' W 001°26'2 3.4
2017-Nov-19 07:30N 44°45' W 001°26'1 2.2
2017-Nov-19 07:00N 44°46' W 001°26'2 3.1
2017-Nov-19 06:30N 44°47' W 001°26'2 3.2
2017-Nov-19 06:01N 44°49' W 001°26'2 3.1
2017-Nov-19 05:30N 44°50' W 001°26'2 3.3
2017-Nov-19 05:00N 44°52' W 001°27'2 3.3
2017-Nov-19 04:29N 44°54' W 001°27'2 3.3
2017-Nov-19 03:58N 44°55' W 001°28'2 3.3
2017-Nov-19 03:13N 44°58' W 001°28'58 9.2
2017-Nov-18 20:57N 45°52' W 001°57'5 9.6
2017-Nov-18 20:28N 45°56' W 001°59'5 9.7
2017-Nov-18 20:00N 46°00' W 002°02'19 9.8
2017-Nov-18 18:05N 46°18' W 002°12'10 9.9
2017-Nov-18 17:07N 46°27' W 002°17'210.1
2017-Nov-18 16:53N 46°29' W 002°18'410.0
2017-Nov-18 16:28N 46°33' W 002°20'24 9.9
2017-Nov-18 14:02N 46°56' W 002°30'0 9.9
2017-Nov-18 14:00N 46°56' W 002°30'8 9.3
2017-Nov-18 13:07N 47°04' W 002°31'1 9.4
2017-Nov-18 12:59N 47°06' W 002°31'5 9.5
2017-Nov-18 12:30N 47°10' W 002°33'5 9.1
2017-Nov-18 11:58N 47°15' W 002°34'6 7.9
2017-Nov-18 11:12N 47°21' W 002°31'0 1.0
2017-Nov-18 11:01N 47°21' W 002°31'0 0.0
2017-Nov-18 10:30N 47°21' W 002°31'0 0.0
2017-Nov-18 10:00N 47°21' W 002°31'0 0.0
2017-Nov-18 09:30N 47°21' W 002°31'0 0.0
2017-Nov-17 00:34N 47°21' W 002°31'0 0.0
2017-Nov-17 00:30N 47°21' W 002°31'0 0.2
2017-Nov-17 00:00N 47°21' W 002°31'0 0.2
2017-Nov-16 23:28N 47°21' W 002°31'0 0.0
2017-Nov-16 23:00N 47°21' W 002°31'2 4.4
2017-Nov-16 22:30N 47°19' W 002°33'510.0
2017-Nov-16 22:00N 47°15' W 002°37'5 9.8
2017-Nov-16 21:30N 47°12' W 002°42'5 9.8
2017-Nov-16 21:00N 47°09' W 002°48'2 3.3
2017-Nov-16 20:26N 47°07' W 002°50'1 2.7
2017-Nov-16 20:00N 47°06' W 002°50'2 2.7
2017-Nov-16 19:22N 47°04' W 002°50'1 2.7
2017-Nov-16 19:00N 47°04' W 002°51'1 2.7
2017-Nov-16 18:30N 47°03' W 002°52'3 2.6
2017-Nov-16 17:31N 47°01' W 002°55'0 3.8
2017-Nov-16 17:28N 47°01' W 002°55'1 1.3
2017-Nov-16 17:00N 47°02' W 002°56'2 3.1
2017-Nov-16 16:24N 47°03' W 002°57'1 3.1
2017-Nov-16 16:00N 47°04' W 002°58'2 3.1
2017-Nov-16 15:30N 47°06' W 002°59'1 2.8
2017-Nov-16 15:00N 47°05' W 003°01'1 2.6
2017-Nov-16 14:29N 47°04' W 003°01'2 3.3
2017-Nov-16 14:00N 47°02' W 002°60'0 0.9
2017-Nov-16 13:30N 47°03' W 003°00'2 3.2
2017-Nov-16 13:00N 47°04' W 003°01'2 3.2
2017-Nov-16 12:30N 47°06' W 003°02'2 3.1
2017-Nov-16 12:00N 47°07' W 003°03'1 2.5
2017-Nov-16 11:30N 47°07' W 003°01'1 3.0
2017-Nov-16 11:00N 47°06' W 003°00'2 4.2
2017-Nov-16 10:30N 47°04' W 003°00'1 2.2
2017-Nov-16 09:58N 47°05' W 003°02'1 2.9
2017-Nov-16 09:30N 47°06' W 003°03'2 2.8
2017-Nov-16 08:56N 47°07' W 003°03'1 2.5
2017-Nov-16 08:30N 47°08' W 003°01'2 3.1
2017-Nov-16 07:55N 47°06' W 002°60'2 3.1
2017-Nov-16 07:20N 47°05' W 002°58'3 2.6
2017-Nov-16 06:22N 47°02' W 002°57'2 2.3
2017-Nov-16 05:43N 47°02' W 002°55'2 3.3
2017-Nov-16 05:00N 47°03' W 002°52'2 3.2
2017-Nov-16 04:29N 47°04' W 002°50'1 3.0
2017-Nov-16 04:00N 47°06' W 002°50'1 3.0
2017-Nov-16 03:30N 47°07' W 002°50'1 2.9
2017-Nov-16 03:00N 47°08' W 002°50'3 5.5
2017-Nov-16 02:27N 47°10' W 002°46'4 9.4
2017-Nov-16 02:00N 47°13' W 002°41'5 9.5
2017-Nov-16 01:30N 47°16' W 002°36'6 9.3
2017-Nov-16 00:54N 47°21' W 002°31'0 0.3
2017-Nov-16 00:21N 47°21' W 002°31'0 0.8
2017-Nov-16 00:00N 47°21' W 002°31'510.9
2017-Nov-15 23:30N 47°19' W 002°39'4 8.4
2017-Nov-15 23:00N 47°17' W 002°44'5 9.6
2017-Nov-15 22:30N 47°15' W 002°50'4 7.2
2017-Nov-15 22:00N 47°13' W 002°55'1 2.8
2017-Nov-15 21:29N 47°13' W 002°57'2 3.3
2017-Nov-15 21:00N 47°13' W 002°59'2 2.9
2017-Nov-15 20:29N 47°11' W 002°59'1 3.1
2017-Nov-15 20:00N 47°10' W 002°58'1 2.9
2017-Nov-15 19:30N 47°09' W 002°59'1 2.7
2017-Nov-15 19:00N 47°08' W 003°01'1 2.5
2017-Nov-15 18:28N 47°07' W 003°01'1 2.4
2017-Nov-15 17:50N 47°05' W 003°00'1 2.9
2017-Nov-15 17:23N 47°04' W 002°60'3 1.1
2017-Nov-15 15:02N 47°06' W 003°01'2 1.5
2017-Nov-15 13:41N 47°08' W 002°58'2 2.2
2017-Nov-15 12:59N 47°06' W 002°58'2 3.1
2017-Nov-15 12:27N 47°06' W 003°01'2 2.2
2017-Nov-15 11:30N 47°03' W 003°01'5 2.0
2017-Nov-15 09:08N 47°08' W 003°04'1 3.0
2017-Nov-15 08:54N 47°07' W 003°03'1 3.1
2017-Nov-15 08:25N 47°06' W 003°02'1 3.1
2017-Nov-15 08:00N 47°05' W 003°01'1 2.6
2017-Nov-15 07:30N 47°03' W 003°01'2 2.9
2017-Nov-15 06:50N 47°02' W 002°60'2 1.7
2017-Nov-15 05:22N 47°02' W 002°56'3 3.2
2017-Nov-15 04:34N 47°04' W 002°58'0 3.9
2017-Nov-15 04:26N 47°04' W 002°58'3 2.8
2017-Nov-15 03:28N 47°07' W 003°01'1 2.2
2017-Nov-15 02:51N 47°08' W 003°01'3 3.1
2017-Nov-15 02:00N 47°09' W 002°58'5 3.1
2017-Nov-15 00:26N 47°14' W 002°55'1 2.8
2017-Nov-15 00:00N 47°15' W 002°55'1 2.4
2017-Nov-14 23:26N 47°16' W 002°53'1 3.1
2017-Nov-14 23:00N 47°15' W 002°53'2 3.1
2017-Nov-14 22:29N 47°13' W 002°54'2 3.4
2017-Nov-14 22:00N 47°12' W 002°55'4 3.3
2017-Nov-14 20:52N 47°09' W 002°59'4 0.7
2017-Nov-14 15:36N 47°07' W 003°04'1 3.0
2017-Nov-14 15:12N 47°06' W 003°03'6 0.8
2017-Nov-14 07:30N 47°12' W 002°59'3 2.4
2017-Nov-14 06:19N 47°13' W 002°56'13 5.8
2017-Nov-14 04:10N 47°19' W 002°40'2 9.7
2017-Nov-14 03:55N 47°20' W 002°36'4 8.9
2017-Nov-14 03:30N 47°21' W 002°31'0 0.1
2017-Nov-14 03:00N 47°21' W 002°31'0 0.0
2017-Nov-14 02:29N 47°21' W 002°31'0 0.0
2017-Nov-14 01:58N 47°21' W 002°31'0 0.0
2017-Nov-14 01:30N 47°21' W 002°31'0 0.0
2017-Nov-14 01:00N 47°21' W 002°31'0 0.0
2017-Nov-14 00:31N 47°21' W 002°31'0 0.0
2017-Nov-14 00:00N 47°21' W 002°31'0 0.2
2017-Nov-13 23:30N 47°21' W 002°31'0 0.0
2017-Nov-13 22:59N 47°21' W 002°31'4 7.7
2017-Nov-13 22:30N 47°18' W 002°35'60 2.2
2017-Nov-12 19:09N 46°21' W 002°10'2 4.5
2017-Nov-12 18:47N 46°23' W 002°10'2 4.5
2017-Nov-12 18:25N 46°24' W 002°09'1 2.7
2017-Nov-12 18:00N 46°25' W 002°10'2 3.3
2017-Nov-12 17:30N 46°27' W 002°10'0 0.8
2017-Nov-12 17:00N 46°27' W 002°09'2 3.9
2017-Nov-12 16:22N 46°26' W 002°13'1 3.5
2017-Nov-12 16:00N 46°27' W 002°13'2 3.2
2017-Nov-12 15:24N 46°27' W 002°11'2 4.5
2017-Nov-12 15:00N 46°28' W 002°13'4 8.7
2017-Nov-12 14:29N 46°32' W 002°16'4 6.4
2017-Nov-12 13:51N 46°33' W 002°10'3 7.0
2017-Nov-12 13:29N 46°31' W 002°07'3 6.5
2017-Nov-12 13:00N 46°28' W 002°08'1 2.4
2017-Nov-12 12:30N 46°28' W 002°10'2 4.7
2017-Nov-12 12:01N 46°30' W 002°12'3 3.1
2017-Nov-12 11:04N 46°27' W 002°10'0 3.8
2017-Nov-12 11:00N 46°27' W 002°10'2 3.5
2017-Nov-12 10:28N 46°27' W 002°07'1 2.5
2017-Nov-12 10:00N 46°27' W 002°09'2 4.3
2017-Nov-12 09:30N 46°28' W 002°11'2 4.3
2017-Nov-12 09:00N 46°30' W 002°12'2 3.4
2017-Nov-12 08:29N 46°29' W 002°11'2 4.3
2017-Nov-12 08:00N 46°28' W 002°09'4 7.1
2017-Nov-12 07:30N 46°30' W 002°04'3 6.6
2017-Nov-12 07:00N 46°32' W 002°09'3 5.7
2017-Nov-12 06:29N 46°33' W 002°12'47 8.6
2017-Nov-12 01:04N 47°17' W 002°35'  
Track history (hours):
 
Tides and Currents Weather Stations Pressure Air Temp Water Temp Dewpoint Dewpoint Depression Visibility Wind Speed Wind Dir Waves Ship Positions

F/V Colombine

Last reported at 2017-Nov-20 00:10 UTC. Time now 2017-Nov-22 05:40 UTC.
Position N 44°57' W 001°24'.

Length 22 m.

Type: Fishing. MMSI: 227866000.

Date/timePositionNaut miles runAvg speedWind from/ knotsBaromVisibWave heightAir tempDewpointWater temp
2017-Nov-20 00:10N 44°57' W 001°24'1 2.9
2017-Nov-19 23:59N 44°56' W 001°24'8 3.3
2017-Nov-19 21:39N 44°49' W 001°25'1 3.9
2017-Nov-19 21:29N 44°48' W 001°25'1 2.4
2017-Nov-19 21:00N 44°47' W 001°25'2 3.3
2017-Nov-19 20:30N 44°45' W 001°25'2 3.1
2017-Nov-19 20:00N 44°44' W 001°25'2 3.2
2017-Nov-19 19:30N 44°42' W 001°25'2 3.2
2017-Nov-19 19:00N 44°41' W 001°25'2 3.3
2017-Nov-19 18:30N 44°40' W 001°23'2 3.0
2017-Nov-19 18:00N 44°38' W 001°23'2 3.1
2017-Nov-19 17:30N 44°36' W 001°23'2 3.1
2017-Nov-19 17:00N 44°35' W 001°23'0 0.8
2017-Nov-19 16:30N 44°35' W 001°24'1 3.0
2017-Nov-19 16:00N 44°36' W 001°24'2 3.4
2017-Nov-19 15:30N 44°38' W 001°24'2 3.3
2017-Nov-19 15:01N 44°39' W 001°23'1 2.8
2017-Nov-19 14:30N 44°38' W 001°23'2 3.2
2017-Nov-19 14:00N 44°36' W 001°22'2 3.2
2017-Nov-19 13:30N 44°35' W 001°22'2 3.2
2017-Nov-19 13:01N 44°33' W 001°22'2 3.3
2017-Nov-19 12:31N 44°32' W 001°23'2 3.5
2017-Nov-19 12:00N 44°31' W 001°26'1 2.1
2017-Nov-19 11:30N 44°32' W 001°26'1 3.0
2017-Nov-19 11:00N 44°34' W 001°26'2 3.2
2017-Nov-19 10:31N 44°35' W 001°26'2 3.2
2017-Nov-19 10:01N 44°37' W 001°26'2 3.1
2017-Nov-19 09:30N 44°38' W 001°26'2 3.1
2017-Nov-19 09:01N 44°40' W 001°26'2 3.1
2017-Nov-19 08:31N 44°41' W 001°26'2 3.1
2017-Nov-19 08:01N 44°43' W 001°26'2 3.4
2017-Nov-19 07:30N 44°45' W 001°26'1 2.2
2017-Nov-19 07:00N 44°46' W 001°26'2 3.1
2017-Nov-19 06:30N 44°47' W 001°26'2 3.2
2017-Nov-19 06:01N 44°49' W 001°26'2 3.1
2017-Nov-19 05:30N 44°50' W 001°26'2 3.3
2017-Nov-19 05:00N 44°52' W 001°27'2 3.3
2017-Nov-19 04:29N 44°54' W 001°27'2 3.3
2017-Nov-19 03:58N 44°55' W 001°28'2 3.3
2017-Nov-19 03:13N 44°58' W 001°28'58 9.2
2017-Nov-18 20:57N 45°52' W 001°57'5 9.6
2017-Nov-18 20:28N 45°56' W 001°59'5 9.7
2017-Nov-18 20:00N 46°00' W 002°02'19 9.8
2017-Nov-18 18:05N 46°18' W 002°12'10 9.9
2017-Nov-18 17:07N 46°27' W 002°17'210.1
2017-Nov-18 16:53N 46°29' W 002°18'410.0
2017-Nov-18 16:28N 46°33' W 002°20'24 9.9
2017-Nov-18 14:02N 46°56' W 002°30'0 9.9
2017-Nov-18 14:00N 46°56' W 002°30'8 9.3
2017-Nov-18 13:07N 47°04' W 002°31'1 9.4
2017-Nov-18 12:59N 47°06' W 002°31'5 9.5
2017-Nov-18 12:30N 47°10' W 002°33'5 9.1
2017-Nov-18 11:58N 47°15' W 002°34'6 7.9
2017-Nov-18 11:12N 47°21' W 002°31'0 1.0
2017-Nov-18 11:01N 47°21' W 002°31'0 0.0
2017-Nov-18 10:30N 47°21' W 002°31'0 0.0
2017-Nov-18 10:00N 47°21' W 002°31'0 0.0
2017-Nov-18 09:30N 47°21' W 002°31'0 0.0
2017-Nov-17 00:34N 47°21' W 002°31'0 0.0
2017-Nov-17 00:30N 47°21' W 002°31'0 0.2
2017-Nov-17 00:00N 47°21' W 002°31'0 0.2
2017-Nov-16 23:28N 47°21' W 002°31'0 0.0
2017-Nov-16 23:00N 47°21' W 002°31'2 4.4
2017-Nov-16 22:30N 47°19' W 002°33'510.0
2017-Nov-16 22:00N 47°15' W 002°37'5 9.8
2017-Nov-16 21:30N 47°12' W 002°42'5 9.8
2017-Nov-16 21:00N 47°09' W 002°48'2 3.3
2017-Nov-16 20:26N 47°07' W 002°50'1 2.7
2017-Nov-16 20:00N 47°06' W 002°50'2 2.7
2017-Nov-16 19:22N 47°04' W 002°50'1 2.7
2017-Nov-16 19:00N 47°04' W 002°51'1 2.7
2017-Nov-16 18:30N 47°03' W 002°52'3 2.6
2017-Nov-16 17:31N 47°01' W 002°55'0 3.8
2017-Nov-16 17:28N 47°01' W 002°55'1 1.3
2017-Nov-16 17:00N 47°02' W 002°56'2 3.1
2017-Nov-16 16:24N 47°03' W 002°57'1 3.1
2017-Nov-16 16:00N 47°04' W 002°58'2 3.1
2017-Nov-16 15:30N 47°06' W 002°59'1 2.8
2017-Nov-16 15:00N 47°05' W 003°01'1 2.6
2017-Nov-16 14:29N 47°04' W 003°01'2 3.3
2017-Nov-16 14:00N 47°02' W 002°60'0 0.9
2017-Nov-16 13:30N 47°03' W 003°00'2 3.2
2017-Nov-16 13:00N 47°04' W 003°01'2 3.2
2017-Nov-16 12:30N 47°06' W 003°02'2 3.1
2017-Nov-16 12:00N 47°07' W 003°03'1 2.5
2017-Nov-16 11:30N 47°07' W 003°01'1 3.0
2017-Nov-16 11:00N 47°06' W 003°00'2 4.2
2017-Nov-16 10:30N 47°04' W 003°00'1 2.2
2017-Nov-16 09:58N 47°05' W 003°02'1 2.9
2017-Nov-16 09:30N 47°06' W 003°03'2 2.8
2017-Nov-16 08:56N 47°07' W 003°03'1 2.5
2017-Nov-16 08:30N 47°08' W 003°01'2 3.1
2017-Nov-16 07:55N 47°06' W 002°60'2 3.1
2017-Nov-16 07:20N 47°05' W 002°58'3 2.6
2017-Nov-16 06:22N 47°02' W 002°57'2 2.3
2017-Nov-16 05:43N 47°02' W 002°55'2 3.3
2017-Nov-16 05:00N 47°03' W 002°52'2 3.2
2017-Nov-16 04:29N 47°04' W 002°50'1 3.0
2017-Nov-16 04:00N 47°06' W 002°50'1 3.0
2017-Nov-16 03:30N 47°07' W 002°50'1 2.9
2017-Nov-16 03:00N 47°08' W 002°50'3 5.5
2017-Nov-16 02:27N 47°10' W 002°46'4 9.4
2017-Nov-16 02:00N 47°13' W 002°41'5 9.5
2017-Nov-16 01:30N 47°16' W 002°36'6 9.3
2017-Nov-16 00:54N 47°21' W 002°31'0 0.3
2017-Nov-16 00:21N 47°21' W 002°31'0 0.8
2017-Nov-16 00:00N 47°21' W 002°31'510.9
2017-Nov-15 23:30N 47°19' W 002°39'4 8.4
2017-Nov-15 23:00N 47°17' W 002°44'5 9.6
2017-Nov-15 22:30N 47°15' W 002°50'4 7.2
2017-Nov-15 22:00N 47°13' W 002°55'1 2.8
2017-Nov-15 21:29N 47°13' W 002°57'2 3.3
2017-Nov-15 21:00N 47°13' W 002°59'2 2.9
2017-Nov-15 20:29N 47°11' W 002°59'1 3.1
2017-Nov-15 20:00N 47°10' W 002°58'1 2.9
2017-Nov-15 19:30N 47°09' W 002°59'1 2.7
2017-Nov-15 19:00N 47°08' W 003°01'1 2.5
2017-Nov-15 18:28N 47°07' W 003°01'1 2.4
2017-Nov-15 17:50N 47°05' W 003°00'1 2.9
2017-Nov-15 17:23N 47°04' W 002°60'3 1.1
2017-Nov-15 15:02N 47°06' W 003°01'2 1.5
2017-Nov-15 13:41N 47°08' W 002°58'2 2.2
2017-Nov-15 12:59N 47°06' W 002°58'2 3.1
2017-Nov-15 12:27N 47°06' W 003°01'2 2.2
2017-Nov-15 11:30N 47°03' W 003°01'5 2.0
2017-Nov-15 09:08N 47°08' W 003°04'1 3.0
2017-Nov-15 08:54N 47°07' W 003°03'1 3.1
2017-Nov-15 08:25N 47°06' W 003°02'1 3.1
2017-Nov-15 08:00N 47°05' W 003°01'1 2.6
2017-Nov-15 07:30N 47°03' W 003°01'2 2.9
2017-Nov-15 06:50N 47°02' W 002°60'2 1.7
2017-Nov-15 05:22N 47°02' W 002°56'3 3.2
2017-Nov-15 04:34N 47°04' W 002°58'0 3.9
2017-Nov-15 04:26N 47°04' W 002°58'3 2.8
2017-Nov-15 03:28N 47°07' W 003°01'1 2.2
2017-Nov-15 02:51N 47°08' W 003°01'3 3.1
2017-Nov-15 02:00N 47°09' W 002°58'5 3.1
2017-Nov-15 00:26N 47°14' W 002°55'1 2.8
2017-Nov-15 00:00N 47°15' W 002°55'1 2.4
2017-Nov-14 23:26N 47°16' W 002°53'1 3.1
2017-Nov-14 23:00N 47°15' W 002°53'2 3.1
2017-Nov-14 22:29N 47°13' W 002°54'2 3.4
2017-Nov-14 22:00N 47°12' W 002°55'4 3.3
2017-Nov-14 20:52N 47°09' W 002°59'4 0.7
2017-Nov-14 15:36N 47°07' W 003°04'1 3.0
2017-Nov-14 15:12N 47°06' W 003°03'6 0.8
2017-Nov-14 07:30N 47°12' W 002°59'3 2.4
2017-Nov-14 06:19N 47°13' W 002°56'13 5.8
2017-Nov-14 04:10N 47°19' W 002°40'2 9.7
2017-Nov-14 03:55N 47°20' W 002°36'4 8.9
2017-Nov-14 03:30N 47°21' W 002°31'0 0.1
2017-Nov-14 03:00N 47°21' W 002°31'0 0.0
2017-Nov-14 02:29N 47°21' W 002°31'0 0.0
2017-Nov-14 01:58N 47°21' W 002°31'0 0.0
2017-Nov-14 01:30N 47°21' W 002°31'0 0.0
2017-Nov-14 01:00N 47°21' W 002°31'0 0.0
2017-Nov-14 00:31N 47°21' W 002°31'0 0.0
2017-Nov-14 00:00N 47°21' W 002°31'0 0.2
2017-Nov-13 23:30N 47°21' W 002°31'0 0.0
2017-Nov-13 22:59N 47°21' W 002°31'4 7.7
2017-Nov-13 22:30N 47°18' W 002°35'60 2.2
2017-Nov-12 19:09N 46°21' W 002°10'2 4.5
2017-Nov-12 18:47N 46°23' W 002°10'2 4.5
2017-Nov-12 18:25N 46°24' W 002°09'1 2.7
2017-Nov-12 18:00N 46°25' W 002°10'2 3.3
2017-Nov-12 17:30N 46°27' W 002°10'0 0.8
2017-Nov-12 17:00N 46°27' W 002°09'2 3.9
2017-Nov-12 16:22N 46°26' W 002°13'1 3.5
2017-Nov-12 16:00N 46°27' W 002°13'2 3.2
2017-Nov-12 15:24N 46°27' W 002°11'2 4.5
2017-Nov-12 15:00N 46°28' W 002°13'4 8.7
2017-Nov-12 14:29N 46°32' W 002°16'4 6.4
2017-Nov-12 13:51N 46°33' W 002°10'3 7.0
2017-Nov-12 13:29N 46°31' W 002°07'3 6.5
2017-Nov-12 13:00N 46°28' W 002°08'1 2.4
2017-Nov-12 12:30N 46°28' W 002°10'2 4.7
2017-Nov-12 12:01N 46°30' W 002°12'3 3.1
2017-Nov-12 11:04N 46°27' W 002°10'0 3.8
2017-Nov-12 11:00N 46°27' W 002°10'2 3.5
2017-Nov-12 10:28N 46°27' W 002°07'1 2.5
2017-Nov-12 10:00N 46°27' W 002°09'2 4.3
2017-Nov-12 09:30N 46°28' W 002°11'2 4.3
2017-Nov-12 09:00N 46°30' W 002°12'2 3.4
2017-Nov-12 08:29N 46°29' W 002°11'2 4.3
2017-Nov-12 08:00N 46°28' W 002°09'4 7.1
2017-Nov-12 07:30N 46°30' W 002°04'3 6.6
2017-Nov-12 07:00N 46°32' W 002°09'3 5.7
2017-Nov-12 06:29N 46°33' W 002°12'47 8.6
2017-Nov-12 01:04N 47°17' W 002°35'  

Dump ship's entire track history